Time;durP1;ratioP1;P1;durP2;ratioP2;P2;SDS_P1;SDS_P2;PMS_P1;PMS_P2;Temp;Humidity;BMP_temperature;BMP_pressure;BME280_temperature;BME280_humidity;BME280_pressure;Samples;Min_cycle;Max_cycle;Signal;HPM_P1;HPM_P2
2023/11/26 00:02:08;;;;;;;19.40;6.37;;;4.70;99.90;;;;;;5012730;28;20262;-68
2023/11/26 00:04:34;;;;;;;14.27;6.53;;;4.70;99.90;;;;;;5012797;28;20180;-68
2023/11/26 00:07:00;;;;;;;15.47;7.30;;;4.70;99.90;;;;;;5012969;28;20200;-68
2023/11/26 00:09:26;;;;;;;7.40;6.63;;;4.70;99.90;;;;;;5012957;28;20541;-68
2023/11/26 00:11:52;;;;;;;15.00;7.00;;;4.70;99.90;;;;;;5013282;28;20644;-68
2023/11/26 00:14:18;;;;;;;12.47;7.07;;;4.70;99.90;;;;;;5012620;28;20172;-68
2023/11/26 00:16:44;;;;;;;10.90;6.50;;;4.80;99.90;;;;;;5012499;28;20192;-68
2023/11/26 00:19:10;;;;;;;14.17;6.83;;;4.80;99.90;;;;;;5012361;28;20169;-68
2023/11/26 00:21:35;;;;;;;8.53;6.60;;;4.80;99.90;;;;;;5012128;28;20175;-68
2023/11/26 00:24:01;;;;;;;15.03;6.97;;;4.80;99.90;;;;;;5012736;28;20540;-68
2023/11/26 00:26:27;;;;;;;21.30;6.93;;;4.80;99.90;;;;;;5012139;28;20210;-68
2023/11/26 00:28:53;;;;;;;17.53;7.60;;;4.80;99.90;;;;;;5012683;28;20207;-68
2023/11/26 00:31:20;;;;;;;19.27;7.13;;;4.80;99.90;;;;;;5012467;28;20194;-68
2023/11/26 00:33:48;;;;;;;11.80;6.50;;;4.80;99.90;;;;;;5012249;28;20191;-68
2023/11/26 00:36:19;;;;;;;12.60;7.03;;;4.70;99.90;;;;;;5012305;28;20188;-68
2023/11/26 00:38:45;;;;;;;16.70;7.00;;;4.70;99.90;;;;;;5012419;28;20248;-68
2023/11/26 00:41:13;;;;;;;16.97;7.23;;;4.80;99.90;;;;;;5011908;28;20177;-68
2023/11/26 00:43:38;;;;;;;11.73;7.03;;;4.80;99.90;;;;;;5012189;28;20275;-68
2023/11/26 00:46:04;;;;;;;11.57;6.93;;;4.80;99.90;;;;;;5012233;28;20283;-68
2023/11/26 00:48:30;;;;;;;12.67;7.50;;;4.80;99.90;;;;;;5011959;28;20175;-68
2023/11/26 00:50:56;;;;;;;9.93;6.53;;;4.70;99.90;;;;;;5012352;28;20690;-68
2023/11/26 00:53:22;;;;;;;13.33;7.20;;;4.80;99.90;;;;;;5011902;28;20290;-68
2023/11/26 00:55:48;;;;;;;15.20;7.50;;;4.70;99.90;;;;;;5011707;28;20614;-68
2023/11/26 00:58:14;;;;;;;18.30;7.47;;;4.70;99.90;;;;;;5011953;28;20176;-68
2023/11/26 01:00:40;;;;;;;15.53;7.80;;;4.70;99.90;;;;;;5011814;28;20552;-68
2023/11/26 01:03:09;;;;;;;14.13;7.30;;;4.70;99.90;;;;;;5011972;28;20183;-68
2023/11/26 01:05:35;;;;;;;10.70;6.53;;;4.70;99.90;;;;;;5011761;28;20196;-68
2023/11/26 01:08:01;;;;;;;16.33;7.50;;;4.80;99.90;;;;;;5011680;28;20180;-68
2023/11/26 01:10:27;;;;;;;18.13;8.07;;;4.80;99.90;;;;;;5011536;28;20248;-68
2023/11/26 01:12:52;;;;;;;17.87;7.43;;;4.70;99.90;;;;;;5012027;28;20287;-68
2023/11/26 01:15:18;;;;;;;10.07;7.13;;;4.70;99.90;;;;;;5011942;28;20608;-68
2023/11/26 01:17:44;;;;;;;15.33;7.63;;;4.80;99.90;;;;;;5011685;28;20235;-68
2023/11/26 01:20:10;;;;;;;9.93;7.33;;;4.80;99.90;;;;;;5011806;28;20172;-68
2023/11/26 01:22:36;;;;;;;14.30;7.30;;;4.70;99.90;;;;;;5012045;28;20199;-67
2023/11/26 01:25:02;;;;;;;13.70;7.90;;;4.70;99.90;;;;;;5011838;28;20204;-68
2023/11/26 01:27:28;;;;;;;11.23;7.67;;;4.60;99.90;;;;;;5011889;28;20179;-68
2023/11/26 01:29:53;;;;;;;13.70;6.87;;;4.60;99.90;;;;;;5011721;28;20176;-73
2023/11/26 01:32:19;;;;;;;15.57;8.50;;;4.60;99.90;;;;;;5013078;28;20200;-68
2023/11/26 01:34:45;;;;;;;13.87;7.30;;;4.50;99.90;;;;;;5016360;28;20251;-68
2023/11/26 01:37:11;;;;;;;15.77;7.67;;;4.50;99.90;;;;;;5015575;28;20187;-68
2023/11/26 01:39:39;;;;;;;12.03;7.50;;;4.40;99.90;;;;;;5015319;28;20180;-68
2023/11/26 01:42:05;;;;;;;11.27;8.07;;;4.40;99.90;;;;;;5015919;28;20176;-68
2023/11/26 01:44:31;;;;;;;13.27;7.87;;;4.30;99.90;;;;;;5015956;28;20175;-68
2023/11/26 01:47:03;;;;;;;14.50;7.47;;;4.30;99.90;;;;;;5015862;28;20207;-68
2023/11/26 01:49:32;;;;;;;11.40;7.20;;;4.30;99.90;;;;;;5015363;28;20299;-67
2023/11/26 01:52:00;;;;;;;15.57;7.40;;;4.20;99.90;;;;;;5015484;28;20538;-68
2023/11/26 01:54:27;;;;;;;12.10;7.30;;;4.20;99.90;;;;;;5015620;28;20265;-67
2023/11/26 01:56:54;;;;;;;16.10;7.57;;;4.30;99.90;;;;;;5015498;28;20165;-68
2023/11/26 01:59:19;;;;;;;13.10;7.00;;;4.30;99.90;;;;;;5015352;28;20173;-68
2023/11/26 02:01:45;;;;;;;9.63;7.23;;;4.30;99.90;;;;;;5015490;28;20176;-68
2023/11/26 02:04:12;;;;;;;15.90;8.07;;;4.20;99.90;;;;;;5015340;28;20215;-68
2023/11/26 02:06:38;;;;;;;13.17;8.30;;;4.20;99.90;;;;;;5015486;28;20187;-68
2023/11/26 02:09:04;;;;;;;9.50;8.37;;;4.30;99.90;;;;;;5015312;28;20250;-68
2023/11/26 02:11:31;;;;;;;13.60;8.70;;;4.20;99.90;;;;;;5015505;28;20168;-68
2023/11/26 02:13:57;;;;;;;14.23;8.40;;;4.20;99.90;;;;;;5015701;28;20350;-68
2023/11/26 02:16:24;;;;;;;11.30;8.90;;;4.20;99.90;;;;;;5015444;28;20280;-68
2023/11/26 02:18:49;;;;;;;17.00;9.03;;;4.20;99.90;;;;;;5015681;28;20176;-67
2023/11/26 02:21:16;;;;;;;21.27;8.97;;;4.20;99.90;;;;;;5015258;28;20188;-68
2023/11/26 02:23:44;;;;;;;12.33;8.50;;;4.10;99.90;;;;;;5015020;28;20191;-68
2023/11/26 02:26:09;;;;;;;22.10;10.30;;;4.10;99.90;;;;;;5015060;28;20250;-68
2023/11/26 02:28:36;;;;;;;23.27;12.87;;;4.00;99.90;;;;;;5015096;28;20180;-72
2023/11/26 02:31:02;;;;;;;22.87;13.20;;;4.00;99.90;;;;;;5014727;28;20180;-68
2023/11/26 02:33:27;;;;;;;25.63;13.67;;;3.90;99.90;;;;;;5014767;28;20204;-69
2023/11/26 02:35:53;;;;;;;22.37;13.03;;;3.90;99.90;;;;;;5014654;28;20254;-67
2023/11/26 02:38:19;;;;;;;17.17;11.77;;;3.80;99.90;;;;;;5014401;28;20173;-69
2023/11/26 02:40:48;;;;;;;20.83;11.50;;;3.80;99.90;;;;;;5014615;28;20173;-68
2023/11/26 02:43:15;;;;;;;17.73;11.73;;;3.80;99.90;;;;;;5014724;28;20222;-68
2023/11/26 02:45:41;;;;;;;18.67;10.97;;;3.80;99.90;;;;;;5014352;28;20196;-67
2023/11/26 02:48:08;;;;;;;22.17;10.57;;;3.80;99.90;;;;;;5014666;28;20585;-68
2023/11/26 02:50:33;;;;;;;16.37;10.37;;;3.80;99.90;;;;;;5014068;28;20294;-67
2023/11/26 02:52:59;;;;;;;24.43;10.53;;;3.80;99.90;;;;;;5014625;28;20301;-68
2023/11/26 02:55:25;;;;;;;19.37;9.80;;;3.70;99.90;;;;;;5014304;28;20270;-67
2023/11/26 02:57:50;;;;;;;20.90;10.37;;;3.70;99.90;;;;;;5014569;28;20183;-67
2023/11/26 03:00:16;;;;;;;20.10;9.73;;;3.60;99.90;;;;;;5014054;28;20268;-68
2023/11/26 03:02:43;;;;;;;20.70;10.13;;;3.60;99.90;;;;;;5014051;28;20180;-68
2023/11/26 03:05:17;;;;;;;20.97;9.97;;;3.50;99.90;;;;;;5014317;28;20869;-69
2023/11/26 03:07:44;;;;;;;17.73;11.13;;;3.40;99.90;;;;;;5014189;28;20550;-68
2023/11/26 03:13:07;;;;;;;25.13;12.87;;;3.30;99.90;;;;;;5014084;28;20262;-68
2023/11/26 03:15:36;;;;;;;14.17;10.63;;;3.30;99.90;;;;;;5014052;28;20184;-67
2023/11/26 03:18:04;;;;;;;20.20;11.97;;;3.20;99.90;;;;;;5013997;28;20325;-68
2023/11/26 03:20:31;;;;;;;22.10;11.50;;;3.20;99.90;;;;;;5013950;28;20176;-68
2023/11/26 03:22:57;;;;;;;18.37;12.00;;;3.10;99.90;;;;;;5014017;28;20276;-67
2023/11/26 03:25:24;;;;;;;21.70;11.83;;;3.10;99.90;;;;;;5013924;28;20243;-72
2023/11/26 03:27:52;;;;;;;30.23;13.17;;;3.10;99.90;;;;;;5013569;28;20180;-68
2023/11/26 03:30:18;;;;;;;19.20;11.50;;;3.10;99.90;;;;;;5013421;28;20635;-67
2023/11/26 03:32:44;;;;;;;17.93;12.37;;;3.00;99.90;;;;;;5013534;28;20212;-67
2023/11/26 03:35:11;;;;;;;18.40;10.83;;;3.10;99.90;;;;;;5013664;28;20188;-67
2023/11/26 03:37:37;;;;;;;26.63;11.77;;;3.00;99.90;;;;;;5013860;28;20583;-68
2023/11/26 03:40:07;;;;;;;27.37;12.13;;;3.00;99.90;;;;;;5013514;28;20203;-68
2023/11/26 03:42:34;;;;;;;19.40;12.13;;;3.00;99.90;;;;;;5013498;28;20187;-68
2023/11/26 03:45:00;;;;;;;24.20;12.07;;;3.00;99.90;;;;;;5013545;28;20200;-68
2023/11/26 03:47:26;;;;;;;22.77;12.80;;;3.00;99.90;;;;;;5013467;28;20172;-67
2023/11/26 03:49:52;;;;;;;22.80;12.90;;;2.90;99.90;;;;;;5013232;28;20694;-67
2023/11/26 03:52:18;;;;;;;16.03;12.10;;;3.00;99.90;;;;;;5013275;28;20291;-67
2023/11/26 03:54:44;;;;;;;23.13;13.37;;;3.00;99.90;;;;;;5012736;28;20644;-68
2023/11/26 03:57:11;;;;;;;20.83;12.67;;;3.00;99.90;;;;;;5013413;28;20169;-68
2023/11/26 03:59:36;;;;;;;25.90;12.90;;;3.00;99.90;;;;;;5012969;28;20587;-67
2023/11/26 04:02:02;;;;;;;29.43;14.03;;;3.00;99.90;;;;;;5013462;28;20169;-67
2023/11/26 04:04:28;;;;;;;25.07;12.10;;;3.00;99.90;;;;;;5013164;28;20168;-68
2023/11/26 04:06:54;;;;;;;25.37;13.10;;;3.00;99.90;;;;;;5013365;28;20539;-68
2023/11/26 04:09:20;;;;;;;19.93;12.33;;;3.00;99.90;;;;;;5012907;28;20180;-68
2023/11/26 04:11:45;;;;;;;27.90;13.57;;;3.00;99.90;;;;;;5012772;28;20570;-68
2023/11/26 04:14:12;;;;;;;34.40;13.90;;;3.00;99.90;;;;;;5012645;28;20259;-68
2023/11/26 04:16:38;;;;;;;25.27;13.50;;;3.00;99.90;;;;;;5012636;28;20184;-67
2023/11/26 04:19:03;;;;;;;22.37;13.17;;;3.00;99.90;;;;;;5012961;28;20275;-68
2023/11/26 04:21:29;;;;;;;29.77;15.70;;;3.00;99.90;;;;;;5012273;28;20176;-68
2023/11/26 04:23:54;;;;;;;21.40;14.37;;;3.10;99.90;;;;;;5012478;28;20186;-67
2023/11/26 04:26:20;;;;;;;33.37;16.00;;;3.10;99.90;;;;;;5012559;28;20196;-67
2023/11/26 04:28:45;;;;;;;24.13;14.50;;;3.20;99.90;;;;;;5012406;28;20180;-67
2023/11/26 04:31:11;;;;;;;25.60;16.27;;;3.30;99.90;;;;;;5012355;28;20168;-67
2023/11/26 04:33:37;;;;;;;27.23;16.20;;;3.30;99.90;;;;;;5012405;28;20206;-67
2023/11/26 04:36:03;;;;;;;39.40;16.07;;;3.40;99.90;;;;;;5012282;28;20243;-68
2023/11/26 04:38:29;;;;;;;28.40;15.90;;;3.50;99.90;;;;;;5012366;28;20211;-68
2023/11/26 04:40:55;;;;;;;34.50;16.43;;;3.50;99.90;;;;;;5012194;28;20172;-67
2023/11/26 04:43:21;;;;;;;38.10;18.13;;;3.60;99.90;;;;;;5012340;28;20636;-67
2023/11/26 04:45:47;;;;;;;32.70;17.97;;;3.60;99.90;;;;;;5012055;28;20244;-67
2023/11/26 04:48:12;;;;;;;31.87;18.27;;;3.70;99.90;;;;;;5012340;28;20180;-68
2023/11/26 04:50:38;;;;;;;26.97;18.23;;;3.70;99.90;;;;;;5011945;28;20191;-68
2023/11/26 04:53:04;;;;;;;29.00;18.23;;;3.80;99.90;;;;;;5012001;28;20200;-68
2023/11/26 04:55:29;;;;;;;40.40;19.60;;;3.80;99.90;;;;;;5011236;28;20207;-68
2023/11/26 04:57:55;;;;;;;39.10;18.43;;;3.90;99.90;;;;;;5010889;28;20539;-68
2023/11/26 05:00:21;;;;;;;34.50;19.10;;;3.90;99.90;;;;;;5010290;28;20207;-68
2023/11/26 05:02:47;;;;;;;39.27;19.50;;;3.90;99.90;;;;;;5010646;28;20673;-68
2023/11/26 05:05:12;;;;;;;33.00;18.63;;;3.90;99.90;;;;;;5011892;28;20196;-68
2023/11/26 05:07:39;;;;;;;33.17;18.67;;;3.90;99.90;;;;;;5010211;28;20222;-68
2023/11/26 05:10:06;;;;;;;41.93;18.13;;;3.90;99.90;;;;;;5011368;28;20180;-68
2023/11/26 05:12:33;;;;;;;28.63;18.17;;;3.90;99.90;;;;;;5011558;28;20561;-68
2023/11/26 05:14:59;;;;;;;46.93;20.50;;;3.90;99.90;;;;;;5011640;28;20283;-68
2023/11/26 05:17:24;;;;;;;42.90;20.00;;;4.00;99.90;;;;;;5011346;28;20203;-68
2023/11/26 05:19:50;;;;;;;36.63;19.23;;;4.00;99.90;;;;;;5011281;28;20251;-68
2023/11/26 05:22:16;;;;;;;37.17;19.50;;;4.00;99.90;;;;;;5011274;28;20187;-68
2023/11/26 05:24:41;;;;;;;46.30;21.10;;;4.00;99.90;;;;;;5011299;28;20176;-68
2023/11/26 05:27:07;;;;;;;35.47;20.10;;;4.00;99.90;;;;;;5011725;28;20251;-68
2023/11/26 05:29:32;;;;;;;39.23;20.80;;;3.90;99.90;;;;;;5010841;28;20187;-68
2023/11/26 05:31:59;;;;;;;35.57;19.67;;;4.00;99.90;;;;;;5011317;28;20176;-68
2023/11/26 05:34:24;;;;;;;46.03;20.70;;;4.00;99.90;;;;;;5012218;28;20636;-68
2023/11/26 05:36:50;;;;;;;31.90;19.60;;;4.00;99.90;;;;;;5011507;28;20188;-68
2023/11/26 05:39:16;;;;;;;46.93;20.70;;;4.00;99.90;;;;;;5011765;28;20614;-68
2023/11/26 05:41:41;;;;;;;35.47;20.87;;;4.00;99.90;;;;;;5011855;28;20699;-68
2023/11/26 05:44:08;;;;;;;40.47;20.37;;;4.00;99.90;;;;;;5011392;28;20192;-68
2023/11/26 05:46:34;;;;;;;39.77;20.40;;;4.00;99.90;;;;;;5011601;28;20259;-68
2023/11/26 05:49:00;;;;;;;41.17;20.97;;;4.00;99.90;;;;;;5011582;28;20200;-68
2023/11/26 05:51:27;;;;;;;48.57;22.13;;;4.00;99.90;;;;;;5026662;28;20809;-68
2023/11/26 05:53:53;;;;;;;37.13;21.40;;;4.10;99.90;;;;;;5011000;28;20195;-68
2023/11/26 05:56:19;;;;;;;46.43;22.97;;;4.10;99.90;;;;;;5011307;28;20194;-68
2023/11/26 05:58:45;;;;;;;46.00;23.00;;;4.20;99.90;;;;;;5011294;28;20172;-68
2023/11/26 06:01:13;;;;;;;47.97;21.67;;;4.20;99.90;;;;;;5011285;28;20176;-68
2023/11/26 06:03:39;;;;;;;39.47;21.90;;;4.20;99.90;;;;;;5011353;28;20176;-68
2023/11/26 06:06:05;;;;;;;37.13;21.87;;;4.20;99.90;;;;;;5011380;28;20643;-68
2023/11/26 06:08:30;;;;;;;48.33;22.90;;;4.30;99.90;;;;;;5011262;28;20721;-68
2023/11/26 06:10:56;;;;;;;38.27;22.53;;;4.30;99.90;;;;;;5010952;28;20550;-68
2023/11/26 06:13:21;;;;;;;45.10;22.03;;;4.30;99.90;;;;;;5011284;28;20204;-68
2023/11/26 06:15:47;;;;;;;50.63;22.67;;;4.30;99.90;;;;;;5011097;28;20284;-68
2023/11/26 06:18:13;;;;;;;41.63;23.10;;;4.30;99.90;;;;;;5012241;28;20195;-68
2023/11/26 06:20:38;;;;;;;49.30;23.30;;;4.30;99.90;;;;;;5015001;28;20611;-68
2023/11/26 06:23:04;;;;;;;40.43;22.53;;;4.30;99.90;;;;;;5015549;28;20184;-69
2023/11/26 06:25:30;;;;;;;45.90;23.33;;;4.30;99.90;;;;;;5014479;28;20196;-68
2023/11/26 06:27:55;;;;;;;53.63;25.00;;;4.20;99.90;;;;;;5014688;28;20177;-68
2023/11/26 06:30:21;;;;;;;43.93;23.40;;;4.20;99.90;;;;;;5014711;28;20179;-68
2023/11/26 06:32:47;;;;;;;51.90;23.73;;;4.20;99.90;;;;;;5014546;28;20219;-68
2023/11/26 06:35:12;;;;;;;43.80;23.87;;;4.10;99.90;;;;;;5014684;28;20555;-68
2023/11/26 06:37:39;;;;;;;45.17;21.97;;;4.10;99.90;;;;;;5014176;28;20200;-68
2023/11/26 06:40:05;;;;;;;53.10;23.70;;;4.10;99.90;;;;;;5014069;28;20195;-69
2023/11/26 06:42:32;;;;;;;43.03;23.20;;;4.00;99.90;;;;;;5014342;28;20262;-68
2023/11/26 06:44:57;;;;;;;47.53;23.30;;;4.00;99.90;;;;;;5014531;28;20200;-68
2023/11/26 06:47:27;;;;;;;41.37;21.87;;;4.00;99.90;;;;;;5014619;28;20315;-68
2023/11/26 06:49:53;;;;;;;48.93;23.80;;;4.00;99.90;;;;;;5013918;28;20180;-68
2023/11/26 06:52:19;;;;;;;57.03;23.90;;;4.00;99.90;;;;;;5014343;28;20295;-68
2023/11/26 06:54:45;;;;;;;44.60;22.83;;;4.10;99.90;;;;;;5014324;28;20608;-68
2023/11/26 06:57:10;;;;;;;43.63;23.67;;;4.10;99.90;;;;;;5014376;28;20204;-68
2023/11/26 06:59:36;;;;;;;55.60;22.90;;;4.20;99.90;;;;;;5014034;28;20172;-68
2023/11/26 07:02:03;;;;;;;56.07;24.63;;;4.20;99.90;;;;;;5014148;28;20540;-68
2023/11/26 07:04:29;;;;;;;49.80;23.37;;;4.30;99.90;;;;;;5014397;28;20172;-67
2023/11/26 07:06:54;;;;;;;56.57;23.27;;;4.30;99.90;;;;;;5013808;28;20204;-68
2023/11/26 07:09:20;;;;;;;45.30;22.70;;;4.30;99.90;;;;;;5013322;28;20183;-68
2023/11/26 07:11:46;;;;;;;45.60;21.37;;;4.40;99.90;;;;;;5013699;28;20269;-68
2023/11/26 07:14:13;;;;;;;48.53;23.87;;;4.40;99.90;;;;;;5012002;28;20250;-68
2023/11/26 07:16:38;;;;;;;46.77;20.93;;;4.40;99.90;;;;;;5013365;28;20195;-68
2023/11/26 07:19:04;;;;;;;46.13;21.53;;;4.50;99.90;;;;;;5013432;28;20640;-68
2023/11/26 07:21:30;;;;;;;52.43;23.50;;;4.50;99.90;;;;;;5013466;28;20275;-68
2023/11/26 07:23:55;;;;;;;48.50;24.47;;;4.40;99.90;;;;;;5012976;28;20184;-68
2023/11/26 07:26:21;;;;;;;49.70;22.87;;;4.40;99.90;;;;;;5013347;28;20197;-68
2023/11/26 07:28:50;;;;;;;56.00;24.63;;;4.40;99.90;;;;;;5013260;28;20183;-68
2023/11/26 07:31:22;;;;;;;55.97;24.03;;;4.50;99.90;;;;;;5012444;28;20532;-68
2023/11/26 07:33:48;;;;;;;43.40;23.23;;;4.50;99.90;;;;;;5012969;28;20218;-68
2023/11/26 07:36:19;;;;;;;46.33;22.73;;;4.50;99.90;;;;;;5013104;28;20283;-68
2023/11/26 07:38:44;;;;;;;47.60;22.90;;;4.50;99.90;;;;;;5012403;28;20246;-68
2023/11/26 07:41:10;;;;;;;46.27;23.40;;;4.60;99.90;;;;;;5013076;28;20676;-68
2023/11/26 07:43:40;;;;;;;37.87;21.40;;;4.60;99.90;;;;;;5013305;28;20180;-69
2023/11/26 07:46:06;;;;;;;44.13;22.57;;;4.70;99.90;;;;;;5013052;28;20262;-68
2023/11/26 07:48:32;;;;;;;58.20;22.23;;;4.70;99.90;;;;;;5012796;28;20238;-68
2023/11/26 07:50:57;;;;;;;43.50;21.47;;;4.80;99.90;;;;;;5012692;28;20212;-68
2023/11/26 07:53:25;;;;;;;45.13;22.67;;;4.80;99.90;;;;;;5012746;28;20222;-68
2023/11/26 07:55:56;;;;;;;44.40;21.73;;;4.80;99.90;;;;;;5012765;28;20199;-68
2023/11/26 07:58:25;;;;;;;51.97;23.27;;;4.90;99.90;;;;;;5011895;28;20594;-68
2023/11/26 08:00:51;;;;;;;47.20;21.53;;;5.00;99.90;;;;;;5012717;28;20175;-68
2023/11/26 08:03:17;;;;;;;42.40;21.90;;;5.00;99.90;;;;;;5012661;28;20180;-68
2023/11/26 08:05:43;;;;;;;48.40;21.97;;;5.10;99.90;;;;;;5012766;28;20621;-68
2023/11/26 08:08:10;;;;;;;45.73;19.13;;;5.10;99.90;;;;;;5012709;28;20184;-69
2023/11/26 08:10:35;;;;;;;53.23;24.53;;;5.20;99.90;;;;;;5012440;28;20703;-68
2023/11/26 08:13:01;;;;;;;44.53;21.60;;;5.20;99.90;;;;;;5012645;28;20287;-68
2023/11/26 08:15:28;;;;;;;37.03;19.70;;;5.20;99.90;;;;;;5012633;28;20279;-68
2023/11/26 08:17:55;;;;;;;45.73;21.03;;;5.20;99.90;;;;;;5012318;28;20622;-68
2023/11/26 08:20:21;;;;;;;56.90;22.90;;;5.30;99.90;;;;;;5012229;28;20207;-68
2023/11/26 08:22:48;;;;;;;49.17;22.37;;;5.30;99.90;;;;;;5012333;28;20176;-68
2023/11/26 08:25:18;;;;;;;43.27;24.13;;;5.40;99.90;;;;;;5012392;28;20561;-68
2023/11/26 08:27:46;;;;;;;47.17;21.00;;;5.50;99.90;;;;;;5012382;28;20516;-68
2023/11/26 08:32:59;;;;;;;43.13;22.30;;;5.60;99.90;;;;;;5012170;28;20669;-68
2023/11/26 08:35:27;;;;;;;48.40;21.73;;;5.70;99.90;;;;;;5011984;28;20207;-68
2023/11/26 08:37:54;;;;;;;42.43;20.73;;;5.70;99.90;;;;;;5011664;28;20701;-68
2023/11/26 08:40:19;;;;;;;36.77;21.30;;;5.70;99.90;;;;;;5011823;28;20176;-68
2023/11/26 08:42:47;;;;;;;51.63;22.73;;;5.80;99.90;;;;;;5010540;28;20529;-68
2023/11/26 08:45:13;;;;;;;44.77;22.33;;;5.80;99.90;;;;;;5012251;28;20203;-68
2023/11/26 08:47:44;;;;;;;41.50;22.60;;;5.90;99.90;;;;;;5012301;28;20172;-68
2023/11/26 08:50:10;;;;;;;43.33;22.67;;;5.90;99.90;;;;;;5012047;28;20207;-68
2023/11/26 08:52:37;;;;;;;45.27;22.63;;;6.00;99.90;;;;;;5012009;28;20577;-67
2023/11/26 08:55:04;;;;;;;44.27;23.97;;;5.90;99.90;;;;;;5011630;28;20851;-68
2023/11/26 08:57:32;;;;;;;50.20;24.97;;;6.00;99.90;;;;;;5012185;28;20655;-68
2023/11/26 08:59:58;;;;;;;46.23;23.00;;;6.10;99.90;;;;;;5011706;28;20258;-68
2023/11/26 09:02:27;;;;;;;47.43;23.17;;;6.10;99.90;;;;;;5012313;28;20184;-68
2023/11/26 09:04:52;;;;;;;45.00;22.67;;;6.10;99.90;;;;;;5011873;28;20245;-68
2023/11/26 09:07:19;;;;;;;42.57;21.33;;;6.10;99.90;;;;;;5012625;28;20180;-68
2023/11/26 09:09:44;;;;;;;45.37;21.30;;;6.20;99.90;;;;;;5011489;28;20179;-68
2023/11/26 09:12:10;;;;;;;43.50;22.07;;;6.20;99.90;;;;;;5011512;28;20180;-68
2023/11/26 09:14:36;;;;;;;40.80;21.93;;;6.30;99.90;;;;;;5011847;28;20255;-68
2023/11/26 09:17:03;;;;;;;37.17;20.50;;;6.30;99.90;;;;;;5011569;28;20655;-68
2023/11/26 09:19:29;;;;;;;41.10;21.97;;;6.50;99.90;;;;;;5011311;28;20226;-68
2023/11/26 09:21:54;;;;;;;44.07;21.47;;;6.50;99.90;;;;;;5011471;28;20176;-68
2023/11/26 09:24:20;;;;;;;42.93;21.90;;;6.50;99.90;;;;;;5011534;28;20181;-68
2023/11/26 09:26:46;;;;;;;41.70;22.57;;;6.60;99.90;;;;;;5011445;28;20192;-69
2023/11/26 09:29:12;;;;;;;41.77;24.43;;;6.60;99.90;;;;;;5011311;28;20176;-68
2023/11/26 09:31:41;;;;;;;38.07;22.57;;;6.60;99.90;;;;;;5011607;28;20172;-69
2023/11/26 09:34:07;;;;;;;43.17;22.83;;;6.60;99.90;;;;;;5011111;28;20296;-68
2023/11/26 09:36:33;;;;;;;37.40;20.30;;;6.60;99.90;;;;;;5011580;28;20225;-68
2023/11/26 09:38:59;;;;;;;38.80;21.53;;;6.70;99.90;;;;;;5011122;28;20176;-68
2023/11/26 09:41:25;;;;;;;34.57;21.27;;;6.80;99.90;;;;;;5011192;28;20195;-68
2023/11/26 09:43:51;;;;;;;30.03;19.17;;;6.80;99.90;;;;;;5011263;28;20215;-69
2023/11/26 09:46:20;;;;;;;34.80;19.97;;;6.90;99.90;;;;;;5011313;28;20206;-68
2023/11/26 09:48:46;;;;;;;34.87;22.37;;;6.90;99.90;;;;;;5011746;28;20179;-68
2023/11/26 09:51:13;;;;;;;30.73;18.93;;;6.90;99.90;;;;;;5011234;28;20168;-68
2023/11/26 09:53:40;;;;;;;36.73;19.73;;;6.90;99.90;;;;;;5013191;28;20273;-68
2023/11/26 09:56:10;;;;;;;31.63;19.80;;;6.90;99.90;;;;;;5014764;28;20196;-68
2023/11/26 09:58:39;;;;;;;36.80;17.67;;;6.90;99.90;;;;;;5015188;28;20635;-68
2023/11/26 10:01:09;;;;;;;28.27;18.03;;;6.90;99.90;;;;;;5014655;28;20242;-68
2023/11/26 10:03:54;;;;;;;29.20;17.80;;;6.90;99.90;;;;;;5015139;28;20172;-68
2023/11/26 10:06:19;;;;;;;34.37;16.23;;;6.90;99.90;;;;;;5015064;28;20330;-67
2023/11/26 10:08:45;;;;;;;34.63;19.10;;;7.00;99.90;;;;;;5015152;28;20196;-67
2023/11/26 10:11:10;;;;;;;26.53;16.77;;;7.00;99.90;;;;;;5013386;28;20180;-68
2023/11/26 10:13:39;;;;;;;31.83;17.43;;;7.00;99.90;;;;;;5014735;28;20254;-68
2023/11/26 10:16:06;;;;;;;25.77;17.23;;;7.10;99.90;;;;;;5014596;28;20568;-68
2023/11/26 10:18:42;;;;;;;25.27;15.37;;;7.10;99.90;;;;;;5014689;28;20238;-68
2023/11/26 10:21:08;;;;;;;29.73;17.70;;;7.20;99.90;;;;;;5012810;28;20180;-68
2023/11/26 10:23:38;;;;;;;25.77;15.73;;;7.20;99.90;;;;;;5014810;28;20267;-68
2023/11/26 10:26:29;;;;;;;27.30;15.77;;;7.20;99.90;;;;;;5014253;28;20208;-68
2023/11/26 10:29:13;;;;;;;24.90;16.00;;;7.20;99.90;;;;;;5015722;28;20172;-68
2023/11/26 10:31:59;;;;;;;22.17;16.07;;;7.40;99.90;;;;;;5014616;28;20258;-68
2023/11/26 10:34:25;;;;;;;22.27;16.63;;;7.50;99.90;;;;;;5014206;28;20211;-68
2023/11/26 10:36:51;;;;;;;21.37;15.07;;;7.70;99.90;;;;;;5013647;28;20243;-68
2023/11/26 10:39:17;;;;;;;27.60;16.20;;;7.70;99.90;;;;;;5014077;28;20184;-68
2023/11/26 10:41:45;;;;;;;22.40;15.90;;;7.70;99.90;;;;;;5013600;28;20701;-68
2023/11/26 10:44:13;;;;;;;19.30;14.43;;;7.70;99.90;;;;;;5013815;28;20176;-68
2023/11/26 10:46:41;;;;;;;20.10;15.43;;;7.70;99.90;;;;;;5028602;28;20196;-68
2023/11/26 10:49:15;;;;;;;23.37;16.10;;;7.70;99.90;;;;;;5013502;28;20177;-68
2023/11/26 10:51:48;;;;;;;22.03;15.93;;;7.70;99.90;;;;;;5013898;28;20250;-68
2023/11/26 10:54:25;;;;;;;23.57;16.00;;;7.70;99.90;;;;;;5013742;28;20204;-68
2023/11/26 10:56:57;;;;;;;21.93;15.80;;;7.80;99.90;;;;;;5013972;28;20746;-69
2023/11/26 10:59:24;;;;;;;22.67;15.33;;;7.90;99.90;;;;;;5013694;28;20191;-68
2023/11/26 11:01:50;;;;;;;21.07;14.50;;;7.90;99.90;;;;;;5013942;28;20207;-69
2023/11/26 11:04:18;;;;;;;21.80;14.57;;;7.80;99.90;;;;;;5011968;28;20187;-69
2023/11/26 11:06:44;;;;;;;21.03;14.07;;;7.80;99.90;;;;;;5013337;28;20192;-69
2023/11/26 11:09:13;;;;;;;22.73;15.43;;;7.80;99.90;;;;;;5013381;28;20572;-69
2023/11/26 11:12:01;;;;;;;23.43;15.13;;;7.80;99.90;;;;;;5013943;28;20176;-69
2023/11/26 11:14:28;;;;;;;22.40;14.63;;;7.80;99.90;;;;;;5013515;28;20172;-69
2023/11/26 11:16:54;;;;;;;19.13;13.97;;;7.80;99.90;;;;;;5013433;28;20188;-68
2023/11/26 11:19:49;;;;;;;22.80;16.13;;;7.90;99.90;;;;;;5013339;28;20292;-68
2023/11/26 11:22:15;;;;;;;21.07;14.90;;;7.90;99.90;;;;;;4993830;28;20235;-69
2023/11/26 11:24:41;;;;;;;15.40;13.43;;;7.90;99.90;;;;;;4993934;28;20201;-69
2023/11/26 11:27:07;;;;;;;19.33;14.80;;;7.90;99.90;;;;;;4999129;28;20192;-69
2023/11/26 11:29:33;;;;;;;18.73;14.47;;;7.90;99.90;;;;;;5013224;28;20168;-69
2023/11/26 11:32:01;;;;;;;18.03;13.90;;;7.90;99.90;;;;;;5013219;28;20176;-69
2023/11/26 11:34:27;;;;;;;18.90;14.17;;;7.90;99.90;;;;;;5013400;28;20168;-69
2023/11/26 11:36:54;;;;;;;19.93;13.17;;;8.00;99.90;;;;;;5012798;28;20855;-69
2023/11/26 11:39:25;;;;;;;17.97;14.17;;;8.10;99.90;;;;;;5012996;28;20187;-69
2023/11/26 11:41:57;;;;;;;18.53;13.33;;;8.10;99.90;;;;;;5013418;28;20207;-69
2023/11/26 11:44:35;;;;;;;20.03;13.23;;;8.00;99.90;;;;;;5013175;28;20180;-68
2023/11/26 11:47:11;;;;;;;21.13;13.80;;;8.10;99.90;;;;;;5013206;28;20180;-69
2023/11/26 11:49:45;;;;;;;17.60;13.43;;;8.10;99.90;;;;;;5013012;28;20267;-68
2023/11/26 11:52:15;;;;;;;17.90;14.03;;;8.20;99.90;;;;;;5013201;28;20171;-69
2023/11/26 11:54:52;;;;;;;16.10;12.20;;;8.20;99.90;;;;;;5012824;28;20249;-69
2023/11/26 11:57:22;;;;;;;16.07;11.80;;;8.30;99.90;;;;;;5012782;28;20172;-68
2023/11/26 11:59:49;;;;;;;16.10;12.00;;;8.30;99.90;;;;;;5012930;28;20172;-69
2023/11/26 12:02:16;;;;;;;18.33;12.57;;;8.40;99.90;;;;;;5012511;28;20164;-68
2023/11/26 12:04:46;;;;;;;15.23;11.97;;;8.30;99.90;;;;;;5012548;28;20640;-68
2023/11/26 12:07:16;;;;;;;20.07;12.17;;;8.40;99.90;;;;;;5012600;28;20183;-68
2023/11/26 12:09:41;;;;;;;14.97;12.07;;;8.40;99.90;;;;;;5012846;28;20171;-68
2023/11/26 12:12:08;;;;;;;15.60;12.40;;;8.30;99.90;;;;;;5012588;28;20172;-68
2023/11/26 12:14:37;;;;;;;15.20;12.37;;;8.30;99.90;;;;;;5012494;28;20200;-69
2023/11/26 12:17:07;;;;;;;17.97;11.33;;;8.40;99.90;;;;;;5012170;28;20184;-68
2023/11/26 12:19:40;;;;;;;21.00;12.47;;;8.40;99.90;;;;;;5012492;28;20187;-68
2023/11/26 12:22:07;;;;;;;15.53;11.60;;;8.40;99.90;;;;;;5012275;28;20176;-68
2023/11/26 12:24:35;;;;;;;18.20;11.67;;;8.40;99.90;;;;;;5012488;28;20164;-68
2023/11/26 12:27:01;;;;;;;15.47;12.27;;;8.30;99.90;;;;;;5012380;28;20191;-68
2023/11/26 12:29:35;;;;;;;16.37;10.53;;;8.30;99.90;;;;;;5012330;28;20164;-68
2023/11/26 12:32:05;;;;;;;18.37;11.07;;;8.30;99.90;;;;;;5012234;28;20219;-68
2023/11/26 12:34:38;;;;;;;13.57;10.23;;;8.30;99.90;;;;;;5012377;28;20227;-68
2023/11/26 12:37:09;;;;;;;12.10;10.13;;;8.30;99.90;;;;;;5012125;28;20543;-68
2023/11/26 12:39:38;;;;;;;12.07;10.53;;;8.30;99.90;;;;;;5012251;28;20199;-68
2023/11/26 12:42:04;;;;;;;14.93;10.70;;;8.20;99.90;;;;;;5012215;28;20168;-69
2023/11/26 12:44:33;;;;;;;17.03;11.83;;;8.10;99.90;;;;;;5012057;28;20176;-68